createdAt,value
2019-03-17T00:00:00.428Z,67.83
2019-03-17T00:04:05.411Z,67.52
2019-03-17T00:08:10.279Z,67.44
2019-03-17T00:12:15.172Z,67.23
2019-03-17T00:16:20.061Z,67.45
2019-03-17T00:20:24.987Z,67.80
2019-03-17T00:24:29.851Z,68.52
2019-03-17T00:28:34.743Z,68.66
2019-03-17T00:32:39.684Z,70.95
2019-03-17T00:36:44.529Z,67.08
2019-03-17T00:40:49.420Z,66.92
2019-03-17T00:44:54.296Z,66.92
2019-03-17T00:48:59.183Z,66.94
2019-03-17T00:53:04.073Z,66.98
2019-03-17T00:57:08.961Z,67.19
2019-03-17T01:01:13.922Z,67.12
2019-03-17T01:05:18.823Z,67.07
2019-03-17T01:09:23.714Z,67.29
2019-03-17T01:13:28.600Z,67.29
2019-03-17T01:17:34.562Z,67.31
2019-03-17T01:21:39.456Z,67.08
2019-03-17T01:25:44.332Z,67.50
2019-03-17T01:29:49.380Z,67.44
2019-03-17T01:33:54.275Z,67.62
2019-03-17T01:37:59.169Z,68.10
2019-03-17T01:42:04.057Z,67.90
2019-03-17T01:46:08.951Z,68.02
2019-03-17T01:50:13.835Z,68.33
2019-03-17T01:54:18.741Z,68.31
2019-03-17T01:58:23.632Z,68.51
2019-03-17T02:02:28.521Z,68.39
2019-03-17T02:06:33.405Z,68.50
2019-03-17T02:10:38.294Z,68.50
2019-03-17T02:14:43.182Z,68.67
2019-03-17T02:18:48.077Z,68.74
2019-03-17T02:22:52.965Z,68.77
2019-03-17T02:26:57.850Z,68.79
2019-03-17T02:31:02.744Z,68.65
2019-03-17T02:35:07.704Z,68.86
2019-03-17T02:39:12.605Z,68.75
2019-03-17T02:43:17.490Z,68.77
2019-03-17T02:47:22.376Z,68.76
2019-03-17T02:51:27.266Z,68.58
2019-03-17T02:55:32.155Z,68.49
2019-03-17T02:59:37.042Z,68.40
2019-03-17T03:03:41.948Z,71.59
2019-03-17T03:07:46.825Z,68.03
2019-03-17T03:11:51.705Z,67.94
2019-03-17T03:15:56.591Z,68.11
2019-03-17T03:20:01.480Z,68.10
2019-03-17T03:24:06.375Z,68.15
2019-03-17T03:28:12.233Z,68.16
2019-03-17T03:32:17.119Z,68.27
2019-03-17T03:36:23.083Z,68.48
2019-03-17T03:40:27.971Z,68.53
2019-03-17T03:44:33.828Z,68.69
2019-03-17T03:48:38.714Z,68.98
2019-03-17T03:52:43.607Z,69.34
2019-03-17T03:56:48.486Z,68.97
2019-03-17T04:00:53.384Z,69.27
2019-03-17T04:04:58.354Z,69.19
2019-03-17T04:09:04.585Z,69.33
2019-03-17T04:13:09.463Z,69.25
2019-03-17T04:17:14.357Z,69.23
2019-03-17T04:21:19.241Z,71.31
2019-03-17T04:25:24.152Z,70.39
2019-03-17T04:29:29.026Z,67.89
2019-03-17T04:33:33.910Z,67.86
2019-03-17T04:37:38.825Z,68.22
2019-03-17T04:41:43.716Z,68.80
2019-03-17T04:45:48.599Z,69.24
2019-03-17T04:49:53.492Z,69.65
2019-03-17T04:53:58.366Z,69.96
2019-03-17T04:58:03.263Z,70.22
2019-03-17T05:02:08.221Z,70.44
2019-03-17T05:06:13.119Z,70.61
2019-03-17T05:10:18.012Z,70.83
2019-03-17T05:14:22.895Z,70.66
2019-03-17T05:18:27.780Z,70.70
2019-03-17T05:22:32.671Z,70.60
2019-03-17T05:26:37.595Z,70.40
2019-03-17T05:30:42.467Z,69.67
2019-03-17T05:34:47.348Z,69.37
2019-03-17T05:38:52.230Z,68.40
2019-03-17T05:42:57.131Z,67.41
2019-03-17T05:47:02.023Z,66.62
2019-03-17T05:51:06.917Z,66.35
2019-03-17T05:55:11.798Z,66.23
2019-03-17T05:59:19.693Z,66.27
2019-03-17T06:03:24.278Z,70.17
2019-03-17T06:07:29.173Z,65.65
2019-03-17T06:11:35.034Z,65.68
2019-03-17T06:15:39.905Z,66.61
2019-03-17T06:19:44.813Z,67.33
2019-03-17T06:23:49.699Z,67.85
2019-03-17T06:27:54.586Z,67.86
2019-03-17T06:31:59.479Z,67.43
2019-03-17T06:36:04.447Z,66.45
2019-03-17T06:40:11.781Z,65.49
2019-03-17T06:44:16.669Z,64.87
2019-03-17T06:48:21.576Z,64.85
2019-03-17T06:52:26.457Z,64.94
2019-03-17T06:56:31.343Z,65.14
2019-03-17T07:00:36.234Z,65.20
2019-03-17T07:04:41.126Z,65.59
2019-03-17T07:08:46.023Z,65.19
2019-03-17T07:12:50.905Z,64.21
2019-03-17T07:16:55.795Z,63.84
2019-03-17T07:21:00.693Z,63.40
2019-03-17T07:25:07.229Z,62.65
2019-03-17T07:29:12.122Z,62.46
2019-03-17T07:33:17.037Z,62.61
2019-03-17T07:37:21.921Z,63.13
2019-03-17T07:41:26.810Z,63.07
2019-03-17T07:45:31.712Z,62.96
2019-03-17T07:49:36.614Z,62.74
2019-03-17T07:53:41.505Z,62.80
2019-03-17T07:57:46.408Z,62.85
2019-03-17T08:01:51.315Z,64.41
2019-03-17T08:05:56.220Z,65.68
2019-03-17T08:10:01.118Z,66.77
2019-03-17T08:14:06.010Z,67.99
2019-03-17T08:18:10.910Z,68.33
2019-03-17T08:22:16.384Z,68.17
2019-03-17T08:26:21.291Z,68.36
2019-03-17T08:30:26.198Z,69.19
2019-03-17T08:34:31.089Z,69.99
2019-03-17T08:38:35.985Z,69.87
2019-03-17T08:42:40.882Z,70.73
2019-03-17T08:46:46.702Z,73.64
2019-03-17T08:50:51.601Z,66.75
2019-03-17T08:54:57.567Z,66.55
2019-03-17T08:59:02.444Z,67.95
2019-03-17T09:03:07.339Z,68.77
2019-03-17T09:07:12.241Z,69.44
2019-03-17T09:11:17.147Z,70.33
2019-03-17T09:15:22.038Z,70.37
2019-03-17T09:19:26.936Z,71.03
2019-03-17T09:23:31.833Z,71.21
2019-03-17T09:27:36.729Z,71.52
2019-03-17T09:31:41.635Z,71.77
2019-03-17T09:35:46.513Z,71.71
2019-03-17T09:39:51.415Z,71.06
2019-03-17T09:43:56.310Z,70.29
2019-03-17T09:48:01.199Z,70.05
2019-03-17T09:52:06.094Z,68.89
2019-03-17T09:56:10.988Z,68.70
2019-03-17T10:00:23.011Z,69.14
2019-03-17T10:04:27.909Z,68.50
2019-03-17T10:08:32.817Z,68.57
2019-03-17T10:12:37.699Z,68.87
2019-03-17T10:16:42.583Z,68.20
2019-03-17T10:20:47.484Z,65.94
2019-03-17T10:24:52.385Z,65.89
2019-03-17T10:28:57.275Z,66.34
2019-03-17T10:33:03.151Z,66.89
2019-03-17T10:37:08.034Z,65.97
2019-03-17T10:41:12.939Z,66.99
2019-03-17T10:45:17.900Z,67.12
2019-03-17T10:49:22.809Z,66.11
2019-03-17T10:53:27.700Z,64.95
2019-03-17T10:57:32.588Z,63.29
2019-03-17T11:01:37.469Z,65.46
2019-03-17T11:05:43.831Z,65.66
2019-03-17T11:09:48.724Z,67.42
2019-03-17T11:13:53.619Z,66.64
2019-03-17T11:17:58.504Z,67.47
2019-03-17T11:22:03.397Z,65.99
2019-03-17T11:26:08.288Z,66.65
2019-03-17T11:30:16.223Z,65.97
2019-03-17T11:34:22.085Z,65.86
2019-03-17T11:38:26.971Z,68.88
2019-03-17T11:42:31.865Z,66.31
2019-03-17T11:46:36.812Z,65.14
2019-03-17T11:50:41.648Z,64.87
2019-03-17T11:54:46.542Z,63.50
2019-03-17T11:58:51.428Z,63.51
2019-03-17T12:02:57.284Z,62.83
2019-03-17T12:07:02.178Z,64.89
2019-03-17T12:11:07.072Z,64.08
2019-03-17T12:15:17.324Z,63.99
2019-03-17T12:19:22.200Z,61.22
2019-03-17T12:23:27.089Z,59.98
2019-03-17T12:27:31.976Z,58.96
2019-03-17T12:31:36.863Z,58.69
2019-03-17T12:35:41.753Z,58.98
2019-03-17T12:39:46.631Z,60.20
2019-03-17T12:43:51.527Z,60.66
2019-03-17T12:47:56.413Z,60.92
2019-03-17T12:52:01.306Z,61.67
2019-03-17T12:56:06.197Z,62.06
2019-03-17T13:00:13.891Z,61.60
2019-03-17T13:04:18.775Z,60.97
2019-03-17T13:08:23.662Z,60.99
2019-03-17T13:12:28.551Z,60.44
2019-03-17T13:16:33.443Z,61.12
2019-03-17T13:20:38.327Z,59.80
2019-03-17T13:24:43.229Z,58.83
2019-03-17T13:28:48.127Z,59.51
2019-03-17T13:32:53.024Z,57.86
2019-03-17T13:36:57.925Z,57.88
2019-03-17T13:41:02.821Z,57.98
2019-03-17T13:45:12.405Z,56.81
2019-03-17T13:49:17.329Z,57.35
2019-03-17T13:53:23.024Z,56.86
2019-03-17T13:57:28.099Z,57.63
2019-03-17T14:01:32.988Z,56.91
2019-03-17T14:05:37.883Z,57.34
2019-03-17T14:09:42.780Z,57.37
2019-03-17T14:13:47.686Z,56.97
2019-03-17T14:17:52.580Z,56.47
2019-03-17T14:21:57.473Z,56.29
2019-03-17T14:26:02.365Z,56.39
2019-03-17T14:30:13.295Z,54.93
2019-03-17T14:34:18.188Z,55.06
2019-03-17T14:38:23.091Z,54.79
2019-03-17T14:42:27.973Z,54.78
2019-03-17T14:46:35.590Z,54.83
2019-03-17T14:50:39.480Z,53.85
2019-03-17T14:54:44.374Z,54.51
2019-03-17T14:58:49.277Z,54.41
2019-03-17T15:02:54.170Z,52.94
2019-03-17T15:06:59.071Z,51.89
2019-03-17T15:11:05.973Z,54.42
2019-03-17T15:15:13.104Z,54.89
2019-03-17T15:19:18.003Z,52.83
2019-03-17T15:23:22.891Z,54.17
2019-03-17T15:27:27.783Z,55.27
2019-03-17T15:31:32.671Z,54.80
2019-03-17T15:35:37.566Z,55.98
2019-03-17T15:39:42.455Z,58.23
2019-03-17T15:43:47.337Z,60.11
2019-03-17T15:47:52.226Z,58.34
2019-03-17T15:51:57.120Z,56.12
2019-03-17T15:56:02.012Z,57.66
2019-03-17T16:00:25.096Z,58.38
2019-03-17T16:04:21.983Z,59.52
2019-03-17T16:08:28.340Z,59.79
2019-03-17T16:12:33.233Z,60.44
2019-03-17T16:16:38.122Z,60.88
2019-03-17T16:20:43.010Z,60.51
2019-03-17T16:24:47.886Z,60.84
2019-03-17T16:28:52.779Z,61.53
2019-03-17T16:32:57.742Z,61.16
2019-03-17T16:37:02.634Z,61.38
2019-03-17T16:41:07.521Z,61.58
2019-03-17T16:45:14.739Z,61.18
2019-03-17T16:49:20.598Z,62.75
2019-03-17T16:53:26.453Z,64.44
2019-03-17T16:57:31.341Z,65.71
2019-03-17T17:01:36.238Z,65.34
2019-03-17T17:05:41.112Z,64.72
2019-03-17T17:09:46.000Z,65.31
2019-03-17T17:13:50.893Z,64.09
2019-03-17T17:17:55.860Z,65.03
2019-03-17T17:22:00.751Z,64.55
2019-03-17T17:26:05.619Z,64.73
2019-03-17T17:30:15.469Z,64.85
2019-03-17T17:34:20.363Z,65.17
2019-03-17T17:38:25.259Z,64.89
2019-03-17T17:42:30.146Z,65.82
2019-03-17T17:46:35.031Z,65.23
2019-03-17T17:50:39.919Z,65.47
2019-03-17T17:54:44.813Z,66.29
2019-03-17T17:58:49.705Z,65.99
2019-03-17T18:02:54.601Z,65.52
2019-03-17T18:06:59.478Z,63.73
2019-03-17T18:11:04.434Z,62.01
2019-03-17T18:15:15.063Z,61.68
2019-03-17T18:19:19.951Z,63.26
2019-03-17T18:23:24.855Z,62.31
2019-03-17T18:27:29.720Z,61.29
2019-03-17T18:31:34.613Z,60.79
2019-03-17T18:35:39.516Z,60.85
2019-03-17T18:39:44.408Z,61.19
2019-03-17T18:43:49.296Z,63.56
2019-03-17T18:47:54.187Z,60.24
2019-03-17T18:51:59.083Z,60.29
2019-03-17T18:56:04.047Z,60.25
2019-03-17T19:00:14.886Z,60.68
2019-03-17T19:04:19.773Z,61.26
2019-03-17T19:08:24.670Z,61.76
2019-03-17T19:12:29.551Z,62.07
2019-03-17T19:16:34.436Z,62.30
2019-03-17T19:20:39.329Z,62.74
2019-03-17T19:24:44.234Z,63.20
2019-03-17T19:28:49.119Z,63.25
2019-03-17T19:32:54.006Z,62.49
2019-03-17T19:36:59.953Z,62.70
2019-03-17T19:41:04.916Z,62.87
2019-03-17T19:45:10.071Z,63.02
2019-03-17T19:49:14.958Z,62.82
2019-03-17T19:53:19.849Z,63.84
2019-03-17T19:57:24.745Z,65.42
2019-03-17T20:01:29.633Z,66.00
2019-03-17T20:05:34.518Z,66.56
2019-03-17T20:09:39.399Z,66.62
2019-03-17T20:13:44.291Z,67.22
2019-03-17T20:17:49.179Z,67.92
2019-03-17T20:21:54.067Z,68.41
2019-03-17T20:25:58.963Z,68.74
2019-03-17T20:30:08.995Z,69.03
2019-03-17T20:34:13.886Z,69.89
2019-03-17T20:38:18.780Z,70.84
2019-03-17T20:42:23.663Z,70.72
2019-03-17T20:46:28.626Z,70.71
2019-03-17T20:50:33.511Z,70.63
2019-03-17T20:54:38.401Z,70.57
2019-03-17T20:58:43.296Z,70.50
2019-03-17T21:02:48.188Z,70.40
2019-03-17T21:06:53.087Z,70.15
2019-03-17T21:10:57.960Z,71.09
2019-03-17T21:15:02.858Z,71.31
2019-03-17T21:19:07.751Z,70.99
2019-03-17T21:23:13.612Z,68.58
2019-03-17T21:27:18.529Z,68.31
2019-03-17T21:31:23.406Z,68.30
2019-03-17T21:35:28.295Z,67.92
2019-03-17T21:39:33.185Z,66.65
2019-03-17T21:43:38.076Z,66.67
2019-03-17T21:47:43.045Z,66.53
2019-03-17T21:51:47.939Z,66.27
2019-03-17T21:55:54.181Z,66.34
2019-03-17T22:00:00.405Z,66.10
2019-03-17T22:04:05.231Z,65.14
2019-03-17T22:08:10.130Z,65.11
2019-03-17T22:12:15.002Z,65.21
2019-03-17T22:16:19.902Z,65.57
2019-03-17T22:20:24.776Z,65.96
2019-03-17T22:24:29.664Z,66.36
2019-03-17T22:28:34.548Z,66.75
2019-03-17T22:32:39.435Z,66.79
2019-03-17T22:36:44.318Z,67.05
2019-03-17T22:40:49.208Z,66.92
2019-03-17T22:44:54.095Z,67.10
2019-03-17T22:48:58.977Z,67.31
2019-03-17T22:53:03.859Z,67.32
2019-03-17T22:57:08.748Z,68.35
2019-03-17T23:01:13.642Z,67.19
2019-03-17T23:05:18.530Z,67.23
2019-03-17T23:09:23.407Z,67.18
2019-03-17T23:13:28.294Z,67.41
2019-03-17T23:17:33.183Z,67.71
2019-03-17T23:21:38.068Z,68.07
2019-03-17T23:25:42.967Z,68.14
2019-03-17T23:29:47.844Z,68.41
2019-03-17T23:33:52.747Z,68.66
2019-03-17T23:37:57.640Z,68.81
2019-03-17T23:42:02.522Z,68.94
2019-03-17T23:46:07.405Z,69.27
2019-03-17T23:50:13.521Z,69.52
2019-03-17T23:54:18.410Z,69.52
2019-03-17T23:58:23.317Z,69.66
